Météo Nord-Pas-de-Calais   La météo au plus près de chez vous

Station météorologique

Observations météo à Chartres (28070)

28070001 155 m Dernier relevé à 06:12
13.5°C
Humidité 87 % Vent 3.2 km/h 1022 hPa

Journée consultée

Mardi 1 Septembre 2026

Synthèse de la journée

Périodes de référence en UTC

Température maximale

24.6°C

à 16:00

06h 06h

Température minimale

13.4°C

à 05:48

18h 18h

Rafale maximale

15 km/h

à 03:18

00h 00h

Précipitations

0 mm

Cumul quotidien

06h 06h

Ensoleillement

0h 0 mins

Durée quotidienne

00h 00h

Graphiques de la journée

Heure locale Réduire

Données détaillées

Relevés météo

Pas de 6 minutes Afficher les relevés infra-horaires
Relevés météo détaillés à Chartres pour le Mardi 1 Septembre 2026
Heure Température °C Point de rosée °C Humidité % Vent moyen (raf.), km/h Précipitations mm Température à 10 cm °C Température à 20 cm °C Température à 50 cm °C Température à 100 cm °C Visibilité m Hauteur neige cm Ensoleillement min Rayonnement global W/m² Pression hPa État du sol  
06:12 13.5 °C 11.7 °C 89 % 6 km/h (10 km/h) 0 mm0 mm 20.1 °C 20.4 °C 20.5 °C 20.1 °C 20000 m 0 cm 0 min 0 W/m² 1022.1 hPa
06:06 13.5 °C 11.7 °C 89 % 4 km/h (8 km/h) 0 mm0 mm 20.1 °C 20.4 °C 20.5 °C 20.1 °C 20000 m 0 cm 0 min 0 W/m² 1022 hPa
06:00 13.4 °C 11.6 °C 89 % 4 km/h (5 km/h) 0 mm0 mm 20.1 °C 20.4 °C 20.5 °C 20.1 °C 20000 m 0 cm 0 min 0 W/m² 1022 hPa
05:54 13.5 °C 11.7 °C 89 % 3 km/h (5 km/h) 0 mm0 mm 20.2 °C 20.5 °C 20.5 °C 20.1 °C 20000 m 0 cm 0 min 0 W/m² 1022.1 hPa
05:48 13.4 °C 11.6 °C 89 % 3 km/h (5 km/h) 0 mm0 mm 20.2 °C 20.5 °C 20.5 °C 20.1 °C 20000 m 0 cm 0 min 0 W/m² 1022.1 hPa
05:42 13.5 °C 11.7 °C 89 % 4 km/h (6 km/h) 0 mm0 mm 20.2 °C 20.5 °C 20.5 °C 20.1 °C 20000 m 0 cm 0 min 0 W/m² 1022.1 hPa
05:36 13.6 °C 11.8 °C 89 % 4 km/h (6 km/h) 0 mm0 mm 20.2 °C 20.5 °C 20.5 °C 20.1 °C 20000 m 0 cm 0 min 0 W/m² 1022.1 hPa
05:30 13.6 °C 11.6 °C 88 % 4 km/h (6 km/h) 0 mm0 mm 20.2 °C 20.5 °C 20.5 °C 20.1 °C 20000 m 0 cm 0 min 0 W/m² 1022.1 hPa 0  
05:24 13.7 °C 11.7 °C 88 % 4 km/h (5 km/h) 0 mm0 mm 20.2 °C 20.5 °C 20.5 °C 20.1 °C 20000 m 0 cm 0 min 0 W/m² 1022 hPa 0  
05:18 13.8 °C 11.7 °C 87 % 3 km/h (5 km/h) 0 mm0 mm 20.2 °C 20.5 °C 20.5 °C 20.1 °C 20000 m 0 cm 0 min 0 W/m² 1022 hPa 0  
05:12 13.9 °C 11.8 °C 87 % 3 km/h (8 km/h) 0 mm0 mm 20.2 °C 20.5 °C 20.5 °C 20 °C 20000 m 0 cm 0 min 0 W/m² 1022 hPa 0  
05:06 14.1 °C 12 °C 87 % 4 km/h (8 km/h) 0 mm0 mm 20.3 °C 20.5 °C 20.5 °C 20.1 °C 20000 m 0 cm 0 min 0 W/m² 1022 hPa 0  
05:00 14.2 °C 12.1 °C 87 % 5 km/h (8 km/h) 0 mm0 mm 20.2 °C 20.5 °C 20.5 °C 20.1 °C 20000 m 0 cm 0 min 0 W/m² 1022 hPa 0  
04:54 14.3 °C 12 °C 86 % 5 km/h (8 km/h) 0 mm0 mm 20.2 °C 20.5 °C 20.5 °C 20.1 °C 20000 m 0 cm 0 min 0 W/m² 1022 hPa 0  
04:48 14.4 °C 12.1 °C 86 % 5 km/h (9 km/h) 0 mm0 mm 20.3 °C 20.5 °C 20.5 °C 20.1 °C 20000 m 0 cm 0 min 0 W/m² 1022 hPa 0  
04:42 14.4 °C 12.1 °C 86 % 6 km/h (10 km/h) 0 mm0 mm 20.3 °C 20.5 °C 20.5 °C 20.1 °C 20000 m 0 cm 0 min 0 W/m² 1022 hPa 0  
04:36 14.5 °C 12.2 °C 86 % 7 km/h (12 km/h) 0 mm0 mm 20.3 °C 20.5 °C 20.5 °C 20 °C 20000 m 0 cm 0 min 0 W/m² 1022 hPa 0  
04:30 14.6 °C 12.1 °C 85 % 7 km/h (12 km/h) 0 mm0 mm 20.3 °C 20.5 °C 20.5 °C 20.1 °C 20000 m 0 cm 0 min 0 W/m² 1021.9 hPa 0  
04:24 14.6 °C 12.1 °C 85 % 7 km/h (11 km/h) 0 mm0 mm 20.3 °C 20.5 °C 20.5 °C 20.1 °C 20000 m 0 cm 0 min 0 W/m² 1022 hPa 0  
04:18 14.6 °C 12.1 °C 85 % 5 km/h (11 km/h) 0 mm0 mm 20.3 °C 20.5 °C 20.5 °C 20.1 °C 20000 m 0 cm 0 min 0 W/m² 1022 hPa 0  
04:12 14.6 °C 11.9 °C 84 % 4 km/h (6 km/h) 0 mm0 mm 20.4 °C 20.5 °C 20.5 °C 20 °C 20000 m 0 cm 0 min 0 W/m² 1022 hPa 0  
04:06 14.7 °C 12 °C 84 % 3 km/h (8 km/h) 0 mm0 mm 20.4 °C 20.5 °C 20.5 °C 20.1 °C 20000 m 0 cm 0 min 0 W/m² 1022 hPa 0  
04:00 14.7 °C 12 °C 84 % 5 km/h (12 km/h) 0 mm0 mm 20.4 °C 20.6 °C 20.5 °C 20.1 °C 20000 m 0 cm 0 min 0 W/m² 1022 hPa 0  
03:54 14.8 °C 11.9 °C 83 % 4 km/h (12 km/h) 0 mm0 mm 20.4 °C 20.6 °C 20.5 °C 20.1 °C 20000 m 0 cm 0 min 0 W/m² 1022 hPa 0  
03:48 15 °C 12.1 °C 83 % 3 km/h (8 km/h) 0 mm0 mm 20.4 °C 20.6 °C 20.5 °C 20.1 °C 20000 m 0 cm 0 min 0 W/m² 1022 hPa 0  
03:42 15.1 °C 12.2 °C 83 % 5 km/h (11 km/h) 0 mm0 mm 20.4 °C 20.6 °C 20.5 °C 20.1 °C 20000 m 0 cm 0 min 0 W/m² 1022 hPa 0  
03:36 15.2 °C 12.3 °C 83 % 7 km/h (12 km/h) 0 mm0 mm 20.4 °C 20.6 °C 20.5 °C 20.1 °C 20000 m 0 cm 0 min 0 W/m² 1022 hPa 0  
03:30 15.2 °C 12.1 °C 82 % 8 km/h (12 km/h) 0 mm0 mm 20.4 °C 20.6 °C 20.5 °C 20.1 °C 20000 m 0 cm 0 min 0 W/m² 1021.9 hPa 0  
03:24 15.4 °C 12.2 °C 81 % 8 km/h (15 km/h) 0 mm0 mm 20.5 °C 20.6 °C 20.5 °C 20.1 °C 20000 m 0 cm 0 min 0 W/m² 1021.7 hPa 0  
03:18 15.5 °C 12.3 °C 81 % 7 km/h (15 km/h) 0 mm0 mm 20.5 °C 20.6 °C 20.5 °C 20.1 °C 20000 m 0 cm 0 min 0 W/m² 1021.6 hPa 0  
03:12 15.6 °C 12.3 °C 81 % 7 km/h (12 km/h) 0 mm0 mm 20.5 °C 20.6 °C 20.5 °C 20.1 °C 20000 m 0 cm 0 min 0 W/m² 1021.7 hPa 0  
03:06 15.6 °C 12.2 °C 80 % 8 km/h (14 km/h) 0 mm0 mm 20.5 °C 20.6 °C 20.5 °C 20.1 °C 20000 m 0 cm 0 min 0 W/m² 1021.7 hPa 0  
03:00 15.6 °C 12.2 °C 80 % 8 km/h (14 km/h) 0 mm0 mm 20.5 °C 20.6 °C 20.5 °C 20.1 °C 20000 m 0 cm 0 min 0 W/m² 1021.7 hPa 0  
02:54 15.7 °C 12.1 °C 79 % 6 km/h (12 km/h) 0 mm0 mm 20.5 °C 20.6 °C 20.5 °C 20.1 °C 20000 m 0 cm 0 min 0 W/m² 1021.6 hPa 0  
02:48 15.9 °C 12.1 °C 78 % 7 km/h (13 km/h) 0 mm0 mm 20.5 °C 20.6 °C 20.5 °C 20.1 °C 20000 m 0 cm 0 min 0 W/m² 1021.6 hPa 0  
02:42 16 °C 12 °C 77 % 7 km/h (13 km/h) 0 mm0 mm 20.5 °C 20.6 °C 20.5 °C 20.1 °C 20000 m 0 cm 0 min 0 W/m² 1021.6 hPa 0  
02:36 16.1 °C 12.1 °C 77 % 7 km/h (12 km/h) 0 mm0 mm 20.5 °C 20.6 °C 20.5 °C 20.1 °C 20000 m 0 cm 0 min 0 W/m² 1021.7 hPa 0  
02:30 16.1 °C 11.9 °C 76 % 7 km/h (12 km/h) 0 mm0 mm 20.6 °C 20.7 °C 20.5 °C 20.1 °C 20000 m 0 cm 0 min 0 W/m² 1021.6 hPa 0  
02:24 16.2 °C 12 °C 76 % 7 km/h (12 km/h) 0 mm0 mm 20.6 °C 20.6 °C 20.5 °C 20.1 °C 20000 m 0 cm 0 min 0 W/m² 1021.6 hPa 0  
02:18 16.3 °C 11.9 °C 75 % 6 km/h (12 km/h) 0 mm0 mm 20.6 °C 20.6 °C 20.5 °C 20.1 °C 20000 m 0 cm 0 min 0 W/m² 1021.6 hPa 0  
02:12 16.3 °C 11.9 °C 75 % 5 km/h (9 km/h) 0 mm0 mm 20.6 °C 20.7 °C 20.5 °C 20.1 °C 20000 m 0 cm 0 min 0 W/m² 1021.6 hPa 0  
02:06 16.4 °C 11.8 °C 74 % 5 km/h (9 km/h) 0 mm0 mm 20.6 °C 20.6 °C 20.4 °C 20 °C 20000 m 0 cm 0 min 0 W/m² 1021.6 hPa 0  
02:00 16.5 °C 11.8 °C 74 % 6 km/h (9 km/h) 0 mm0 mm 20.6 °C 20.7 °C 20.5 °C 20.1 °C 20000 m 0 cm 0 min 0 W/m² 1021.5 hPa 0  
01:54 16.5 °C 11.8 °C 74 % 7 km/h (11 km/h) 0 mm0 mm 20.6 °C 20.7 °C 20.5 °C 20.1 °C 20000 m 0 cm 0 min 0 W/m² 1021.5 hPa 0  
01:48 16.5 °C 11.8 °C 74 % 6 km/h (11 km/h) 0 mm0 mm 20.6 °C 20.7 °C 20.5 °C 20.1 °C 20000 m 0 cm 0 min 0 W/m² 1021.6 hPa 0  
01:42 16.5 °C 11.8 °C 74 % 6 km/h (10 km/h) 0 mm0 mm 20.6 °C 20.7 °C 20.5 °C 20.1 °C 20000 m 0 cm 0 min 0 W/m² 1021.6 hPa 0  
01:36 16.5 °C 11.6 °C 73 % 5 km/h (10 km/h) 0 mm0 mm 20.6 °C 20.7 °C 20.5 °C 20.1 °C 20000 m 0 cm 0 min 0 W/m² 1021.6 hPa 0  
01:30 16.5 °C 11.6 °C 73 % 5 km/h (8 km/h) 0 mm0 mm 20.7 °C 20.7 °C 20.5 °C 20.1 °C 20000 m 0 cm 0 min 0 W/m² 1021.6 hPa 0  
01:24 16.6 °C 11.7 °C 73 % 5 km/h (8 km/h) 0 mm0 mm 20.7 °C 20.7 °C 20.5 °C 20.1 °C 20000 m 0 cm 0 min 0 W/m² 1021.6 hPa 0  
01:18 16.6 °C 11.5 °C 72 % 5 km/h (10 km/h) 0 mm0 mm 20.7 °C 20.7 °C 20.5 °C 20.1 °C 20000 m 0 cm 0 min 0 W/m² 1021.6 hPa 0  
01:12 16.7 °C 11.6 °C 72 % 6 km/h (10 km/h) 0 mm0 mm 20.7 °C 20.7 °C 20.5 °C 20.1 °C 20000 m 0 cm 0 min 0 W/m² 1021.5 hPa 0  
01:06 16.7 °C 11.6 °C 72 % 6 km/h (10 km/h) 0 mm0 mm 20.7 °C 20.7 °C 20.5 °C 20.1 °C 20000 m 0 cm 0 min 0 W/m² 1021.5 hPa 0  
01:00 16.7 °C 11.6 °C 72 % 6 km/h (11 km/h) 0 mm0 mm 20.7 °C 20.7 °C 20.5 °C 20.1 °C 20000 m 0 cm 0 min 0 W/m² 1021.5 hPa 0  
00:54 16.7 °C 11.6 °C 72 % 6 km/h (12 km/h) 0 mm0 mm 20.7 °C 20.7 °C 20.5 °C 20.1 °C 20000 m 0 cm 0 min 0 W/m² 1021.5 hPa 0  
00:48 16.9 °C 11.6 °C 71 % 6 km/h (12 km/h) 0 mm0 mm 20.7 °C 20.7 °C 20.5 °C 20.1 °C 20000 m 0 cm 0 min 0 W/m² 1021.4 hPa 0  
00:42 16.9 °C 11.6 °C 71 % 4 km/h (11 km/h) 0 mm0 mm 20.8 °C 20.7 °C 20.5 °C 20.1 °C 20000 m 0 cm 0 min 0 W/m² 1021.4 hPa 0  
00:36 17 °C 11.7 °C 71 % 4 km/h (9 km/h) 0 mm0 mm 20.8 °C 20.7 °C 20.5 °C 20.1 °C 20000 m 0 cm 0 min 0 W/m² 1021.3 hPa 0  
00:30 17 °C 11.7 °C 71 % 5 km/h (9 km/h) 0 mm0 mm 20.8 °C 20.7 °C 20.5 °C 20.1 °C 20000 m 0 cm 0 min 0 W/m² 1021.3 hPa 0  
00:24 16.9 °C 11.6 °C 71 % 6 km/h (9 km/h) 0 mm0 mm 20.8 °C 20.8 °C 20.5 °C 20.1 °C 20000 m 0 cm 0 min 0 W/m² 1021.3 hPa 0  
00:18 16.9 °C 11.6 °C 71 % 6 km/h (10 km/h) 0 mm0 mm 20.8 °C 20.7 °C 20.5 °C 20.1 °C 20000 m 0 cm 0 min 0 W/m² 1021.3 hPa 0  
00:12 16.9 °C 11.4 °C 70 % 6 km/h (10 km/h) 0 mm0 mm 20.8 °C 20.7 °C 20.5 °C 20.1 °C 20000 m 0 cm 0 min 0 W/m² 1021.2 hPa 0  
00:06 17 °C 11.5 °C 70 % 6 km/h (8 km/h) 0 mm0 mm 20.8 °C 20.8 °C 20.5 °C 20.1 °C 20000 m 0 cm 0 min 0 W/m² 1021.2 hPa 0  
00:00 17 °C 11.5 °C 70 % 5 km/h (8 km/h) 0 mm0 mm 20.8 °C 20.7 °C 20.5 °C 20.1 °C 20000 m 0 cm 0 min 0 W/m² 1021.2 hPa 0  

Données via Météo-France

Relevés météo à Chartres

Cette page rassemble les observations de la station de Chartres : température, humidité, vent, précipitations et pression atmosphérique. Les graphiques facilitent le suivi de la journée, tandis que le tableau donne accès aux mesures horaires et infra-horaires disponibles.

Pour replacer ces mesures dans leur contexte, consultez la climatologie de Chartres ainsi que ses normales et records. Retrouvez aussi la carte des observations météo en temps réel.